createdAt,value
2023-01-07T00:01:09.608Z,84.62
2023-01-07T00:03:36.753Z,84.29
2023-01-07T00:06:05.248Z,84.31
2023-01-07T00:08:33.136Z,84.29
2023-01-07T00:11:07.198Z,84.47
2023-01-07T00:13:34.417Z,84.48
2023-01-07T00:16:02.237Z,84.41
2023-01-07T00:18:29.136Z,84.63
2023-01-07T00:20:59.784Z,84.38
2023-01-07T00:23:27.239Z,84.51
2023-01-07T00:25:59.668Z,84.55
2023-01-07T00:28:26.466Z,84.48
2023-01-07T00:30:53.179Z,84.46
2023-01-07T00:33:21.821Z,84.82
2023-01-07T00:35:48.559Z,84.88
2023-01-07T00:38:15.309Z,84.77
2023-01-07T00:40:41.967Z,84.93
2023-01-07T00:43:09.039Z,85.03
2023-01-07T00:45:36.925Z,84.76
2023-01-07T00:48:04.383Z,84.92
2023-01-07T00:50:32.557Z,84.91
2023-01-07T00:52:59.575Z,84.55
2023-01-07T00:55:26.807Z,84.79
2023-01-07T00:57:54.192Z,84.49
2023-01-07T01:00:21.692Z,84.63
2023-01-07T01:02:48.814Z,84.43
2023-01-07T01:05:15.557Z,84.47
2023-01-07T01:07:42.288Z,84.41
2023-01-07T01:10:10.202Z,84.36
2023-01-07T01:12:37.512Z,84.48
2023-01-07T01:15:08.481Z,84.29
2023-01-07T01:17:35.368Z,84.18
2023-01-07T01:20:02.509Z,84.14
2023-01-07T01:22:29.515Z,84.14
2023-01-07T01:24:56.302Z,84.26
2023-01-07T01:27:23.339Z,84.25
2023-01-07T01:29:50.172Z,84.20
2023-01-07T01:32:17.742Z,84.07
2023-01-07T01:34:45.749Z,83.95
2023-01-07T01:37:12.537Z,84.05
2023-01-07T01:39:39.357Z,84.14
2023-01-07T01:42:06.318Z,84.08
2023-01-07T01:44:38.018Z,84.08
2023-01-07T01:47:33.251Z,84.04
2023-01-07T01:50:04.604Z,84.01
2023-01-07T01:52:37.985Z,83.81
2023-01-07T01:55:06.870Z,84.12
2023-01-07T01:57:35.517Z,83.90
2023-01-07T02:00:02.864Z,83.82
2023-01-07T02:02:43.048Z,83.91
2023-01-07T02:05:10.102Z,83.83
2023-01-07T02:07:36.812Z,83.67
2023-01-07T02:10:11.969Z,83.65
2023-01-07T02:12:58.107Z,83.62
2023-01-07T02:15:29.707Z,83.78
2023-01-07T02:17:56.555Z,83.97
2023-01-07T02:20:23.233Z,83.61
2023-01-07T02:23:16.519Z,83.56
2023-01-07T02:25:43.335Z,83.61
2023-01-07T02:28:19.129Z,83.91
2023-01-07T02:30:45.886Z,83.70
2023-01-07T02:33:25.620Z,83.67
2023-01-07T02:35:55.242Z,83.84
2023-01-07T02:38:27.316Z,83.93
2023-01-07T02:41:13.701Z,83.83
2023-01-07T02:43:47.277Z,83.63
2023-01-07T02:46:14.054Z,83.67
2023-01-07T02:48:41.809Z,83.57
2023-01-07T02:51:08.655Z,83.83
2023-01-07T02:53:35.695Z,83.91
2023-01-07T02:56:05.514Z,84.02
2023-01-07T02:58:36.194Z,84.04
2023-01-07T03:01:21.549Z,83.87
2023-01-07T03:04:18.012Z,83.83
2023-01-07T03:06:56.852Z,83.56
2023-01-07T03:09:39.019Z,83.57
2023-01-07T03:12:09.698Z,83.68
2023-01-07T03:14:45.994Z,83.70
2023-01-07T03:17:15.757Z,83.67
2023-01-07T03:19:46.133Z,83.69
2023-01-07T03:22:15.539Z,83.73
2023-01-07T03:24:43.076Z,83.63
2023-01-07T03:27:09.911Z,83.60
2023-01-07T03:29:36.696Z,83.54
2023-01-07T03:32:19.599Z,83.33
2023-01-07T03:34:47.413Z,83.35
2023-01-07T03:37:20.314Z,83.57
2023-01-07T03:39:47.654Z,83.65
2023-01-07T03:42:33.863Z,83.34
2023-01-07T03:45:01.331Z,83.65
2023-01-07T03:47:30.802Z,83.68
2023-01-07T03:49:57.605Z,83.67
2023-01-07T03:52:24.431Z,83.55
2023-01-07T03:54:51.809Z,83.70
2023-01-07T03:57:18.605Z,83.50
2023-01-07T03:59:45.597Z,83.70
2023-01-07T04:02:12.382Z,83.60
2023-01-07T04:04:40.051Z,83.54
2023-01-07T04:07:07.323Z,83.68
2023-01-07T04:09:34.068Z,83.79
2023-01-07T04:12:00.816Z,83.69
2023-01-07T04:14:27.765Z,83.55
2023-01-07T04:16:54.539Z,83.60
2023-01-07T04:19:21.761Z,83.67
2023-01-07T04:21:48.473Z,83.61
2023-01-07T04:24:15.365Z,83.66
2023-01-07T04:26:42.702Z,83.63
2023-01-07T04:29:10.831Z,83.67
2023-01-07T04:31:37.680Z,83.46
2023-01-07T04:34:04.531Z,83.62
2023-01-07T04:36:31.277Z,83.48
2023-01-07T04:38:58.280Z,83.42
2023-01-07T04:41:25.635Z,83.44
2023-01-07T04:43:53.291Z,83.35
2023-01-07T04:46:20.041Z,83.30
2023-01-07T04:48:47.558Z,83.55
2023-01-07T04:51:14.659Z,83.34
2023-01-07T04:53:41.761Z,83.22
2023-01-07T04:56:08.630Z,83.31
2023-01-07T04:58:35.573Z,83.26
2023-01-07T05:01:06.024Z,83.34
2023-01-07T05:03:37.357Z,83.28
2023-01-07T05:06:05.647Z,83.42
2023-01-07T05:08:33.412Z,83.31
2023-01-07T05:11:02.251Z,83.51
2023-01-07T05:13:31.865Z,83.29
2023-01-07T05:16:00.402Z,83.44
2023-01-07T05:18:27.341Z,83.49
2023-01-07T05:20:54.346Z,83.12
2023-01-07T05:23:21.137Z,83.10
2023-01-07T05:25:49.277Z,83.19
2023-01-07T05:28:16.163Z,83.29
2023-01-07T05:30:42.934Z,83.24
2023-01-07T05:33:10.489Z,83.16
2023-01-07T05:35:37.757Z,83.37
2023-01-07T05:38:04.631Z,83.05
2023-01-07T05:40:31.968Z,83.13
2023-01-07T05:42:58.712Z,83.09
2023-01-07T05:45:27.131Z,83.32
2023-01-07T05:47:53.867Z,83.06
2023-01-07T05:50:20.634Z,83.26
2023-01-07T05:52:47.524Z,83.51
2023-01-07T05:55:14.293Z,83.73
2023-01-07T05:57:40.928Z,83.69
2023-01-07T06:00:10.352Z,84.11
2023-01-07T06:02:40.200Z,84.18
2023-01-07T06:05:07.251Z,84.17
2023-01-07T06:07:33.911Z,84.15
2023-01-07T06:10:02.801Z,84.00
2023-01-07T06:12:29.988Z,84.17
2023-01-07T06:14:56.731Z,84.43
2023-01-07T06:17:23.405Z,84.52
2023-01-07T06:19:50.125Z,84.55
2023-01-07T06:22:16.784Z,84.66
2023-01-07T06:24:43.542Z,84.54
2023-01-07T06:27:10.707Z,84.48
2023-01-07T06:29:37.410Z,84.49
2023-01-07T06:32:04.246Z,84.39
2023-01-07T06:34:30.958Z,84.49
2023-01-07T06:36:57.632Z,84.41
2023-01-07T06:39:24.487Z,84.45
2023-01-07T06:41:51.162Z,84.57
2023-01-07T06:44:17.925Z,84.51
2023-01-07T06:46:44.666Z,84.75
2023-01-07T06:49:11.574Z,84.48
2023-01-07T06:51:38.425Z,84.69
2023-01-07T06:54:05.267Z,84.52
2023-01-07T06:56:31.966Z,84.63
2023-01-07T06:58:58.651Z,84.56
2023-01-07T07:01:25.645Z,84.53
2023-01-07T07:03:52.589Z,84.28
2023-01-07T07:06:19.222Z,84.31
2023-01-07T07:08:46.088Z,84.47
2023-01-07T07:11:12.740Z,84.45
2023-01-07T07:13:39.517Z,84.35
2023-01-07T07:16:06.472Z,84.64
2023-01-07T07:18:33.222Z,84.50
2023-01-07T07:20:59.905Z,84.56
2023-01-07T07:23:26.799Z,84.51
2023-01-07T07:25:53.428Z,84.47
2023-01-07T07:28:20.221Z,84.35
2023-01-07T07:30:48.097Z,84.69
2023-01-07T07:33:15.726Z,84.73
2023-01-07T07:35:42.426Z,84.82
2023-01-07T07:38:09.450Z,84.70
2023-01-07T07:40:36.249Z,84.80
2023-01-07T07:43:10.930Z,84.88
2023-01-07T07:45:39.982Z,84.80
2023-01-07T07:48:08.065Z,84.70
2023-01-07T07:50:35.435Z,84.83
2023-01-07T07:53:02.165Z,84.49
2023-01-07T07:55:28.909Z,84.49
2023-01-07T07:57:56.428Z,84.39
2023-01-07T08:00:23.345Z,84.43
2023-01-07T08:02:50.212Z,84.70
2023-01-07T08:05:16.986Z,84.72
2023-01-07T08:07:43.757Z,84.60
2023-01-07T08:10:10.512Z,84.53
2023-01-07T08:12:38.320Z,84.74
2023-01-07T08:15:05.955Z,84.57
2023-01-07T08:17:32.705Z,84.49
2023-01-07T08:19:59.500Z,84.81
2023-01-07T08:22:26.226Z,84.80
2023-01-07T08:24:53.005Z,84.70
2023-01-07T08:27:19.741Z,84.52
2023-01-07T08:29:47.169Z,84.56
2023-01-07T08:32:15.650Z,84.67
2023-01-07T08:34:42.379Z,84.48
2023-01-07T08:37:09.139Z,84.55
2023-01-07T08:39:35.992Z,84.62
2023-01-07T08:42:02.729Z,84.45
2023-01-07T08:44:29.541Z,84.45
2023-01-07T08:46:56.287Z,84.42
2023-01-07T08:49:23.178Z,84.32
2023-01-07T08:51:50.009Z,84.21
2023-01-07T08:54:16.766Z,84.23
2023-01-07T08:56:43.521Z,84.28
2023-01-07T08:59:10.760Z,84.28
2023-01-07T09:01:37.638Z,84.06
2023-01-07T09:04:04.597Z,84.30
2023-01-07T09:06:31.313Z,84.13
2023-01-07T09:08:58.089Z,84.17
2023-01-07T09:11:24.827Z,84.15
2023-01-07T09:13:51.617Z,84.34
2023-01-07T09:16:18.351Z,84.19
2023-01-07T09:18:45.628Z,84.20
2023-01-07T09:21:12.374Z,84.21
2023-01-07T09:23:40.445Z,83.97
2023-01-07T09:26:07.410Z,84.17
2023-01-07T09:28:34.210Z,83.80
2023-01-07T09:31:00.967Z,83.81
2023-01-07T09:33:27.695Z,83.93
2023-01-07T09:35:54.370Z,83.91
2023-01-07T09:38:21.099Z,83.66
2023-01-07T09:40:48.022Z,83.67
2023-01-07T09:43:21.126Z,83.79
2023-01-07T09:45:50.340Z,83.77
2023-01-07T09:48:22.190Z,83.39
2023-01-07T09:51:07.038Z,83.53
2023-01-07T09:53:39.549Z,83.18
2023-01-07T09:56:12.487Z,83.46
2023-01-07T09:58:41.085Z,83.14
2023-01-07T10:01:10.830Z,82.97
2023-01-07T10:03:43.769Z,83.11
2023-01-07T10:06:46.045Z,83.00
2023-01-07T10:09:12.766Z,83.00
2023-01-07T10:12:05.730Z,82.92
2023-01-07T10:14:46.449Z,82.84
2023-01-07T10:17:26.582Z,82.76
2023-01-07T10:19:57.851Z,82.39
2023-01-07T10:22:56.685Z,82.56
2023-01-07T10:25:35.769Z,82.11
2023-01-07T10:28:08.144Z,82.03
2023-01-07T10:30:37.101Z,82.26
2023-01-07T10:33:32.828Z,81.92
2023-01-07T10:36:02.381Z,81.74
2023-01-07T10:38:30.245Z,81.63
2023-01-07T10:40:59.264Z,81.63
2023-01-07T10:43:53.000Z,81.31
2023-01-07T10:46:34.256Z,81.26
2023-01-07T10:49:19.761Z,80.94
2023-01-07T10:51:47.100Z,80.84
2023-01-07T10:54:32.922Z,80.91
2023-01-07T10:57:09.269Z,80.78
2023-01-07T10:59:36.621Z,80.70
2023-01-07T11:02:05.297Z,80.46
2023-01-07T11:04:33.158Z,80.21
2023-01-07T11:07:04.577Z,79.98
2023-01-07T11:09:33.929Z,80.14
2023-01-07T11:12:19.538Z,79.98
2023-01-07T11:14:46.972Z,79.46
2023-01-07T11:17:52.267Z,79.22
2023-01-07T11:20:37.464Z,79.18
2023-01-07T11:23:17.698Z,78.73
2023-01-07T11:25:44.391Z,78.71
2023-01-07T11:28:17.836Z,78.41
2023-01-07T11:30:44.567Z,78.53
2023-01-07T11:34:03.010Z,77.86
2023-01-07T11:36:38.274Z,77.42
2023-01-07T11:39:12.472Z,77.37
2023-01-07T11:41:50.795Z,77.40
2023-01-07T11:44:17.515Z,77.23
2023-01-07T11:46:45.319Z,77.18
2023-01-07T11:49:23.224Z,77.01
2023-01-07T11:51:50.141Z,77.18
2023-01-07T11:54:21.503Z,76.96
2023-01-07T11:56:48.552Z,76.87
2023-01-07T11:59:23.750Z,76.88
2023-01-07T12:01:59.593Z,76.58
2023-01-07T12:04:30.972Z,76.73
2023-01-07T12:07:00.220Z,76.70
2023-01-07T12:09:28.390Z,76.51
2023-01-07T12:11:56.925Z,76.51
2023-01-07T12:14:25.894Z,76.34
2023-01-07T12:16:53.983Z,76.25
2023-01-07T12:19:31.755Z,75.72
2023-01-07T12:21:58.545Z,76.05
2023-01-07T12:24:31.660Z,75.90
2023-01-07T12:27:17.660Z,75.77
2023-01-07T12:30:03.450Z,75.74
2023-01-07T12:32:36.679Z,75.58
2023-01-07T12:35:14.267Z,75.46
2023-01-07T12:37:57.531Z,75.53
2023-01-07T12:40:37.211Z,75.38
2023-01-07T12:43:22.841Z,75.38
2023-01-07T12:45:52.769Z,75.15
2023-01-07T12:48:27.386Z,74.90
2023-01-07T12:50:56.776Z,74.91
2023-01-07T12:53:23.490Z,75.01
2023-01-07T12:55:52.738Z,74.87
2023-01-07T12:58:22.534Z,74.74
2023-01-07T13:00:49.275Z,74.76
2023-01-07T13:03:19.405Z,74.79
2023-01-07T13:05:54.619Z,74.77
2023-01-07T13:08:39.837Z,74.36
2023-01-07T13:11:15.619Z,74.43
2023-01-07T13:13:45.371Z,74.41
2023-01-07T13:16:12.716Z,74.42
2023-01-07T13:18:39.714Z,74.47
2023-01-07T13:21:14.126Z,74.15
2023-01-07T13:23:59.625Z,74.11
2023-01-07T13:26:41.707Z,74.07
2023-01-07T13:29:08.494Z,74.01
2023-01-07T13:31:38.949Z,74.13
2023-01-07T13:34:12.787Z,74.24
2023-01-07T13:36:58.379Z,74.08
2023-01-07T13:39:45.472Z,73.95
2023-01-07T13:42:18.738Z,74.08
2023-01-07T13:44:48.608Z,74.16
2023-01-07T13:47:18.772Z,74.21
2023-01-07T13:49:56.482Z,73.97
2023-01-07T13:52:25.589Z,73.50
2023-01-07T13:54:53.552Z,72.45
2023-01-07T13:57:26.180Z,72.10
2023-01-07T13:59:54.035Z,71.89
2023-01-07T14:02:22.551Z,71.36
2023-01-07T14:05:09.790Z,71.04
2023-01-07T14:07:50.870Z,70.60
2023-01-07T14:10:31.327Z,70.45
2023-01-07T14:13:01.094Z,70.31
2023-01-07T14:15:37.969Z,70.44
2023-01-07T14:18:13.050Z,70.22
2023-01-07T14:20:45.889Z,70.18
2023-01-07T14:23:15.757Z,69.98
2023-01-07T14:25:51.490Z,69.98
2023-01-07T14:28:26.903Z,70.08
2023-01-07T14:30:54.719Z,70.04
2023-01-07T14:33:21.579Z,70.03
2023-01-07T14:35:54.682Z,69.67
2023-01-07T14:38:30.490Z,69.53
2023-01-07T14:41:08.490Z,69.29
2023-01-07T14:43:43.439Z,69.49
2023-01-07T14:46:22.419Z,68.35
2023-01-07T14:49:15.239Z,67.75
2023-01-07T14:51:56.411Z,68.04
2023-01-07T14:54:38.672Z,68.07
2023-01-07T14:57:24.211Z,68.31
2023-01-07T14:59:54.027Z,68.26
2023-01-07T15:02:39.091Z,68.39
2023-01-07T15:05:27.018Z,68.47
2023-01-07T15:08:18.531Z,68.45
2023-01-07T15:11:05.625Z,68.69
2023-01-07T15:13:54.922Z,68.40
2023-01-07T15:16:22.323Z,68.46
2023-01-07T15:18:53.820Z,68.66
2023-01-07T15:21:29.497Z,68.63
2023-01-07T15:24:24.334Z,68.91
2023-01-07T15:26:54.254Z,68.89
2023-01-07T15:29:39.726Z,68.73
2023-01-07T15:32:25.404Z,68.86
2023-01-07T15:34:52.255Z,68.69
2023-01-07T15:37:19.265Z,68.86
2023-01-07T15:39:49.745Z,68.77
2023-01-07T15:42:18.856Z,68.83
2023-01-07T15:44:48.378Z,68.85
2023-01-07T15:47:33.723Z,68.92
2023-01-07T15:50:18.966Z,68.66
2023-01-07T15:52:50.653Z,68.89
2023-01-07T15:55:28.083Z,68.96
2023-01-07T15:57:59.629Z,68.96
2023-01-07T16:00:26.631Z,69.04
2023-01-07T16:02:53.689Z,68.83
2023-01-07T16:05:20.597Z,69.02
2023-01-07T16:07:50.554Z,69.03
2023-01-07T16:10:21.840Z,69.10
2023-01-07T16:12:49.692Z,69.02
2023-01-07T16:15:24.124Z,69.20
2023-01-07T16:17:55.681Z,69.04
2023-01-07T16:20:29.543Z,69.21
2023-01-07T16:23:08.573Z,69.09
2023-01-07T16:26:05.084Z,69.08
2023-01-07T16:28:42.296Z,68.91
2023-01-07T16:31:10.641Z,69.17
2023-01-07T16:33:38.495Z,69.17
2023-01-07T16:36:06.951Z,69.09
2023-01-07T16:38:35.564Z,69.18
2023-01-07T16:41:02.991Z,69.17
2023-01-07T16:43:31.372Z,69.19
2023-01-07T16:46:09.093Z,69.52
2023-01-07T16:48:36.006Z,69.45
2023-01-07T16:51:03.060Z,69.51
2023-01-07T16:53:32.367Z,69.65
2023-01-07T16:56:01.819Z,69.78
2023-01-07T16:58:34.980Z,69.74
2023-01-07T17:01:02.654Z,69.69
2023-01-07T17:03:32.496Z,69.70
2023-01-07T17:06:04.589Z,69.83
2023-01-07T17:08:31.805Z,69.80
2023-01-07T17:11:00.943Z,69.95
2023-01-07T17:13:27.702Z,70.03
2023-01-07T17:16:14.407Z,69.95
2023-01-07T17:18:41.389Z,70.05
2023-01-07T17:21:28.014Z,70.26
2023-01-07T17:23:55.104Z,70.42
2023-01-07T17:26:23.455Z,70.40
2023-01-07T17:28:55.138Z,70.61
2023-01-07T17:31:23.640Z,70.70
2023-01-07T17:33:51.372Z,70.94
2023-01-07T17:36:19.361Z,71.05
2023-01-07T17:38:46.458Z,71.04
2023-01-07T17:41:34.506Z,71.07
2023-01-07T17:44:02.133Z,71.06
2023-01-07T17:46:30.317Z,71.00
2023-01-07T17:48:58.161Z,70.85
2023-01-07T17:51:26.148Z,70.77
2023-01-07T17:53:59.010Z,70.91
2023-01-07T17:56:26.005Z,71.05
2023-01-07T17:58:55.762Z,70.82
2023-01-07T18:01:23.447Z,70.73
2023-01-07T18:03:51.432Z,70.93
2023-01-07T18:06:18.457Z,70.79
2023-01-07T18:08:46.088Z,70.91
2023-01-07T18:11:33.098Z,70.95
2023-01-07T18:14:00.214Z,70.63
2023-01-07T18:16:27.494Z,70.58
2023-01-07T18:18:55.083Z,70.54
2023-01-07T18:21:21.953Z,70.64
2023-01-07T18:23:49.184Z,70.50
2023-01-07T18:26:16.614Z,70.56
2023-01-07T18:28:43.619Z,70.78
2023-01-07T18:31:10.802Z,70.57
2023-01-07T18:33:37.669Z,70.26
2023-01-07T18:36:04.918Z,70.44
2023-01-07T18:38:32.515Z,70.22
2023-01-07T18:40:59.320Z,70.12
2023-01-07T18:43:26.236Z,70.40
2023-01-07T18:45:53.063Z,70.33
2023-01-07T18:48:20.329Z,70.47
2023-01-07T18:50:48.489Z,70.38
2023-01-07T18:53:16.158Z,70.84
2023-01-07T18:55:43.443Z,70.56
2023-01-07T18:58:14.309Z,70.93
2023-01-07T19:00:41.869Z,70.81
2023-01-07T19:03:10.078Z,70.99
2023-01-07T19:05:38.945Z,71.18
2023-01-07T19:08:05.806Z,71.03
2023-01-07T19:10:32.559Z,71.26
2023-01-07T19:12:59.347Z,71.36
2023-01-07T19:15:26.140Z,71.59
2023-01-07T19:17:52.927Z,71.66
2023-01-07T19:20:19.820Z,71.69
2023-01-07T19:22:46.709Z,72.10
2023-01-07T19:25:13.649Z,72.05
2023-01-07T19:27:40.632Z,72.25
2023-01-07T19:30:08.352Z,72.29
2023-01-07T19:32:35.739Z,72.74
2023-01-07T19:35:02.815Z,72.90
2023-01-07T19:37:29.619Z,73.11
2023-01-07T19:39:56.420Z,73.41
2023-01-07T19:42:23.358Z,73.60
2023-01-07T19:44:50.114Z,73.90
2023-01-07T19:47:17.377Z,74.03
2023-01-07T19:49:45.458Z,74.19
2023-01-07T19:52:13.698Z,74.35
2023-01-07T19:54:41.269Z,74.61
2023-01-07T19:57:08.044Z,74.63
2023-01-07T19:59:35.179Z,74.98
2023-01-07T20:02:03.033Z,74.95
2023-01-07T20:04:31.101Z,74.95
2023-01-07T20:06:57.854Z,75.41
2023-01-07T20:09:24.643Z,75.46
2023-01-07T20:11:51.426Z,75.65
2023-01-07T20:14:18.311Z,75.87
2023-01-07T20:16:45.140Z,75.79
2023-01-07T20:19:12.793Z,76.25
2023-01-07T20:21:40.552Z,76.49
2023-01-07T20:24:07.613Z,76.58
2023-01-07T20:26:35.502Z,76.84
2023-01-07T20:29:02.432Z,77.07
2023-01-07T20:31:30.675Z,77.04
2023-01-07T20:33:58.292Z,77.03
2023-01-07T20:36:26.589Z,77.14
2023-01-07T20:38:53.660Z,77.17
2023-01-07T20:41:25.795Z,77.12
2023-01-07T20:43:53.607Z,76.92
2023-01-07T20:46:20.839Z,76.87
2023-01-07T20:48:48.791Z,76.75
2023-01-07T20:51:15.908Z,76.76
2023-01-07T20:53:42.977Z,76.62
2023-01-07T20:56:10.120Z,76.64
2023-01-07T20:58:37.625Z,76.37
2023-01-07T21:01:05.643Z,76.26
2023-01-07T21:03:32.748Z,76.23
2023-01-07T21:05:59.535Z,75.93
2023-01-07T21:08:26.841Z,75.87
2023-01-07T21:10:54.062Z,75.81
2023-01-07T21:13:21.764Z,75.74
2023-01-07T21:15:48.936Z,75.36
2023-01-07T21:18:16.064Z,75.38
2023-01-07T21:20:43.385Z,75.39
2023-01-07T21:23:10.760Z,75.39
2023-01-07T21:25:37.899Z,75.39
2023-01-07T21:28:06.853Z,75.72
2023-01-07T21:30:33.729Z,75.59
2023-01-07T21:33:00.634Z,75.69
2023-01-07T21:35:27.599Z,75.77
2023-01-07T21:37:55.136Z,75.97
2023-01-07T21:40:22.267Z,76.23
2023-01-07T21:42:49.112Z,76.45
2023-01-07T21:45:15.948Z,76.50
2023-01-07T21:47:42.872Z,76.84
2023-01-07T21:50:09.654Z,76.93
2023-01-07T21:52:36.578Z,77.00
2023-01-07T21:55:04.306Z,76.91
2023-01-07T21:57:31.316Z,77.21
2023-01-07T21:59:58.105Z,77.39
2023-01-07T22:02:24.905Z,77.52
2023-01-07T22:04:51.752Z,77.56
2023-01-07T22:07:19.507Z,77.82
2023-01-07T22:09:46.472Z,77.80
2023-01-07T22:12:14.404Z,77.71
2023-01-07T22:14:41.641Z,77.99
2023-01-07T22:17:09.889Z,78.38
2023-01-07T22:19:36.623Z,78.20
2023-01-07T22:22:03.612Z,78.23
2023-01-07T22:24:30.561Z,78.65
2023-01-07T22:26:57.499Z,78.45
2023-01-07T22:29:24.290Z,78.53
2023-01-07T22:31:52.962Z,78.85
2023-01-07T22:34:19.930Z,78.87
2023-01-07T22:36:51.031Z,79.24
2023-01-07T22:39:28.199Z,79.06
2023-01-07T22:41:56.584Z,79.27
2023-01-07T22:44:29.431Z,79.32
2023-01-07T22:46:56.727Z,79.50
2023-01-07T22:49:25.481Z,79.39
2023-01-07T22:51:52.472Z,79.34
2023-01-07T22:54:19.432Z,79.60
2023-01-07T22:56:46.395Z,79.53
2023-01-07T22:59:13.139Z,79.32
2023-01-07T23:01:40.270Z,79.43
2023-01-07T23:04:07.738Z,79.38
2023-01-07T23:06:35.936Z,79.32
2023-01-07T23:09:02.792Z,79.39
2023-01-07T23:11:49.475Z,79.40
2023-01-07T23:14:17.846Z,79.40
2023-01-07T23:16:44.626Z,79.27
2023-01-07T23:19:12.149Z,79.38
2023-01-07T23:21:40.120Z,79.42
2023-01-07T23:24:06.969Z,79.27
2023-01-07T23:26:33.821Z,79.49
2023-01-07T23:29:00.644Z,79.57
2023-01-07T23:31:27.607Z,79.52
2023-01-07T23:33:54.463Z,79.49
2023-01-07T23:36:21.332Z,79.70
2023-01-07T23:38:48.181Z,79.69
2023-01-07T23:41:14.910Z,79.78
2023-01-07T23:43:41.778Z,79.86
2023-01-07T23:46:08.551Z,79.88
2023-01-07T23:48:36.383Z,79.87
2023-01-07T23:51:05.091Z,79.81
2023-01-07T23:53:31.970Z,79.94
2023-01-07T23:55:58.722Z,79.96
2023-01-07T23:58:25.978Z,79.99
